createdAt,value
2018-04-02T00:00:47.403Z,4.50
2018-04-02T00:03:16.311Z,11.17
2018-04-02T00:05:45.377Z,26.27
2018-04-02T00:08:14.340Z,26.10
2018-04-02T00:10:43.383Z,15.93
2018-04-02T00:13:12.619Z,7.20
2018-04-02T00:15:41.684Z,3.90
2018-04-02T00:18:10.589Z,3.57
2018-04-02T00:20:39.536Z,3.73
2018-04-02T00:23:09.191Z,3.60
2018-04-02T00:25:38.254Z,5.27
2018-04-02T00:28:07.246Z,7.50
2018-04-02T00:30:36.346Z,8.00
2018-04-02T00:33:05.461Z,7.60
2018-04-02T00:35:36.915Z,6.77
2018-04-02T00:38:06.624Z,9.10
2018-04-02T00:40:35.514Z,13.60
2018-04-02T00:43:04.519Z,20.57
2018-04-02T00:45:34.182Z,23.63
2018-04-02T00:48:03.199Z,21.50
2018-04-02T00:50:32.183Z,18.53
2018-04-02T00:53:01.262Z,11.30
2018-04-02T00:55:30.355Z,9.13
2018-04-02T00:57:59.617Z,7.83
2018-04-02T01:00:28.469Z,8.63
2018-04-02T01:02:57.335Z,8.40
2018-04-02T01:05:26.340Z,8.18
2018-04-02T01:07:55.421Z,7.80
2018-04-02T01:10:24.298Z,8.60
2018-04-02T01:12:53.418Z,8.97
2018-04-02T01:15:22.378Z,10.20
2018-04-02T01:17:51.219Z,10.30
2018-04-02T01:20:20.210Z,10.20
2018-04-02T01:22:49.099Z,13.73
2018-04-02T01:25:18.177Z,14.97
2018-04-02T01:27:46.994Z,16.57
2018-04-02T01:30:16.032Z,16.70
2018-04-02T01:32:44.925Z,15.80
2018-04-02T01:35:14.348Z,12.80
2018-04-02T01:37:43.241Z,9.83
2018-04-02T01:40:12.301Z,9.57
2018-04-02T01:42:42.329Z,7.03
2018-04-02T01:45:11.896Z,6.20
2018-04-02T01:47:41.008Z,5.83
2018-04-02T01:50:09.914Z,6.70
2018-04-02T01:52:38.918Z,8.13
2018-04-02T01:55:07.750Z,9.20
2018-04-02T01:57:36.801Z,8.67
2018-04-02T02:00:06.109Z,8.27
2018-04-02T02:02:35.106Z,7.97
2018-04-02T02:05:03.986Z,6.40
2018-04-02T02:07:33.390Z,6.73
2018-04-02T02:10:02.235Z,6.77
2018-04-02T02:12:31.104Z,8.07
2018-04-02T02:14:59.937Z,10.77
2018-04-02T02:17:28.882Z,12.57
2018-04-02T02:19:57.715Z,13.73
2018-04-02T02:22:27.040Z,11.10
2018-04-02T02:24:55.874Z,9.97
2018-04-02T02:27:24.735Z,9.13
2018-04-02T02:29:53.805Z,8.97
2018-04-02T02:32:23.410Z,9.00
2018-04-02T02:34:52.441Z,8.40
2018-04-02T02:37:21.308Z,8.18
2018-04-02T02:39:50.237Z,9.88
2018-04-02T02:42:19.400Z,11.10
2018-04-02T02:44:48.301Z,9.23
2018-04-02T02:47:17.779Z,7.60
2018-04-02T02:49:47.393Z,5.83
2018-04-02T02:52:16.242Z,4.27
2018-04-02T02:54:46.175Z,3.50
2018-04-02T02:57:15.065Z,4.73
2018-04-02T02:59:44.116Z,4.68
2018-04-02T03:02:12.965Z,5.00
2018-04-02T03:04:41.841Z,4.90
2018-04-02T03:07:11.503Z,4.90
2018-04-02T03:09:40.361Z,5.23
2018-04-02T03:12:09.273Z,6.00
2018-04-02T03:14:38.165Z,6.13
2018-04-02T03:17:07.139Z,6.97
2018-04-02T03:19:36.255Z,7.33
2018-04-02T03:22:05.207Z,8.57
2018-04-02T03:24:35.025Z,8.73
2018-04-02T03:27:04.685Z,9.17
2018-04-02T03:29:33.473Z,10.53
2018-04-02T03:32:02.441Z,9.93
2018-04-02T03:34:31.263Z,8.27
2018-04-02T03:37:00.247Z,8.43
2018-04-02T03:39:29.032Z,8.30
2018-04-02T03:41:57.825Z,8.00
2018-04-02T03:44:26.876Z,7.87
2018-04-02T03:46:56.741Z,6.73
2018-04-02T03:49:26.446Z,5.37
2018-04-02T03:51:55.752Z,6.50
2018-04-02T03:54:24.761Z,5.07
2018-04-02T03:56:54.018Z,7.20
2018-04-02T03:59:23.002Z,13.90
2018-04-02T04:01:52.096Z,22.93
2018-04-02T04:04:20.983Z,25.37
2018-04-02T04:06:50.695Z,20.20
2018-04-02T04:09:19.620Z,17.80
2018-04-02T04:11:49.333Z,13.80
2018-04-02T04:14:18.215Z,14.07
2018-04-02T04:16:47.173Z,10.17
2018-04-02T04:19:16.053Z,9.20
2018-04-02T04:21:44.998Z,8.70
2018-04-02T04:24:13.942Z,8.53
2018-04-02T04:26:43.156Z,9.17
2018-04-02T04:29:12.078Z,8.13
2018-04-02T04:31:41.794Z,7.27
2018-04-02T04:34:11.513Z,5.83
2018-04-02T04:36:40.399Z,6.13
2018-04-02T04:39:09.280Z,6.23
2018-04-02T04:41:38.435Z,6.70
2018-04-02T04:44:08.098Z,6.93
2018-04-02T04:46:36.950Z,7.30
2018-04-02T04:49:05.813Z,7.17
2018-04-02T04:51:35.106Z,7.73
2018-04-02T04:54:04.037Z,8.53
2018-04-02T04:56:32.957Z,9.17
2018-04-02T04:59:02.036Z,9.50
2018-04-02T05:01:31.030Z,9.57
2018-04-02T05:03:59.954Z,8.90
2018-04-02T05:06:28.829Z,11.80
2018-04-02T05:08:58.809Z,12.33
2018-04-02T05:11:27.630Z,12.00
2018-04-02T05:13:56.719Z,11.40
2018-04-02T05:16:25.976Z,12.50
2018-04-02T05:18:54.867Z,15.80
2018-04-02T05:21:24.663Z,14.77
2018-04-02T05:23:53.873Z,9.50
2018-04-02T05:26:22.961Z,6.53
2018-04-02T05:28:51.858Z,6.53
2018-04-02T05:31:20.851Z,6.60
2018-04-02T05:33:50.461Z,5.90
2018-04-02T05:36:19.450Z,4.77
2018-04-02T05:38:48.326Z,5.03
2018-04-02T05:41:17.161Z,5.17
2018-04-02T05:43:46.226Z,4.97
2018-04-02T05:46:15.744Z,5.07
2018-04-02T05:48:44.627Z,4.40
2018-04-02T05:51:13.553Z,4.33
2018-04-02T05:53:42.549Z,3.60
2018-04-02T05:56:12.244Z,3.37
2018-04-02T05:58:41.377Z,3.83
2018-04-02T06:01:10.555Z,4.03
2018-04-02T06:03:39.654Z,4.00
2018-04-02T06:06:08.879Z,3.47
2018-04-02T06:08:37.772Z,3.83
2018-04-02T06:11:07.007Z,4.03
2018-04-02T06:13:36.705Z,4.00
2018-04-02T06:16:05.589Z,4.70
2018-04-02T06:18:34.768Z,2.73
2018-04-02T06:21:04.508Z,2.60
2018-04-02T06:23:33.876Z,2.80
2018-04-02T06:26:02.740Z,2.83
2018-04-02T06:28:31.998Z,2.97
2018-04-02T06:31:01.688Z,2.73
2018-04-02T06:33:30.809Z,3.17
2018-04-02T06:35:59.854Z,6.43
2018-04-02T06:38:28.887Z,5.03
2018-04-02T06:40:57.758Z,6.17
2018-04-02T06:43:26.618Z,5.20
2018-04-02T06:45:55.512Z,4.53
2018-04-02T06:48:24.733Z,4.07
2018-04-02T06:50:53.932Z,4.60
2018-04-02T06:53:23.549Z,4.20
2018-04-02T06:55:52.393Z,3.47
2018-04-02T06:58:21.466Z,3.60
2018-04-02T07:00:50.593Z,3.73
2018-04-02T07:03:19.540Z,2.73
2018-04-02T07:05:49.451Z,3.30
2018-04-02T07:08:18.328Z,3.03
2018-04-02T07:10:47.946Z,3.37
2018-04-02T07:13:17.272Z,4.30
2018-04-02T07:15:46.094Z,4.97
2018-04-02T07:18:14.991Z,5.03
2018-04-02T07:20:44.101Z,5.70
2018-04-02T07:23:12.965Z,4.23
2018-04-02T07:25:42.674Z,3.80
2018-04-02T07:28:11.617Z,4.30
2018-04-02T07:30:41.374Z,3.77
2018-04-02T07:33:10.311Z,4.27
2018-04-02T07:35:39.912Z,3.37
2018-04-02T07:38:08.782Z,5.07
2018-04-02T07:40:38.432Z,3.87
2018-04-02T07:43:07.373Z,3.27
2018-04-02T07:45:36.249Z,3.40
2018-04-02T07:48:05.177Z,4.60
2018-04-02T07:50:34.128Z,4.23
2018-04-02T07:53:03.117Z,3.30
2018-04-02T07:55:32.443Z,4.23
2018-04-02T07:58:01.332Z,4.77
2018-04-02T08:00:30.322Z,5.10
2018-04-02T08:02:59.475Z,5.27
2018-04-02T08:05:28.457Z,4.87
2018-04-02T08:07:57.752Z,5.43
2018-04-02T08:10:27.470Z,6.47
2018-04-02T08:12:57.116Z,4.80
2018-04-02T08:15:26.107Z,4.70
2018-04-02T08:17:55.097Z,5.53
2018-04-02T08:20:24.007Z,5.43
2018-04-02T08:22:53.056Z,4.27
2018-04-02T08:25:22.874Z,5.50
2018-04-02T08:27:52.610Z,4.67
2018-04-02T08:30:21.531Z,3.70
2018-04-02T08:32:50.662Z,5.03
2018-04-02T08:35:19.526Z,5.73
2018-04-02T08:37:48.626Z,3.40
2018-04-02T08:40:17.780Z,4.90
2018-04-02T08:42:46.718Z,4.63
2018-04-02T08:45:16.462Z,3.17
2018-04-02T08:47:46.127Z,4.90
2018-04-02T08:50:15.785Z,4.50
2018-04-02T08:52:44.705Z,5.53
2018-04-02T08:55:13.496Z,3.80
2018-04-02T08:57:42.672Z,3.93
2018-04-02T09:00:11.628Z,4.90
2018-04-02T09:02:40.564Z,3.00
2018-04-02T09:05:09.590Z,3.80
2018-04-02T09:07:39.366Z,7.20
2018-04-02T09:10:08.194Z,5.30
2018-04-02T09:12:37.048Z,4.20
2018-04-02T09:15:06.296Z,4.73
2018-04-02T09:17:35.230Z,4.50
2018-04-02T09:20:04.216Z,3.60
2018-04-02T09:22:33.483Z,3.20
2018-04-02T09:25:03.110Z,3.47
2018-04-02T09:27:32.141Z,4.00
2018-04-02T09:30:01.093Z,3.40
2018-04-02T09:32:31.205Z,4.20
2018-04-02T09:35:00.470Z,4.00
2018-04-02T09:37:30.314Z,4.63
2018-04-02T09:39:59.270Z,4.50
2018-04-02T09:42:28.181Z,3.77
2018-04-02T09:44:57.102Z,3.83
2018-04-02T09:47:25.978Z,3.57
2018-04-02T09:49:55.074Z,3.60
2018-04-02T09:52:24.816Z,3.00
2018-04-02T09:54:53.737Z,3.27
2018-04-02T09:57:22.684Z,3.23
2018-04-02T09:59:51.657Z,3.57
2018-04-02T10:02:22.272Z,3.87
2018-04-02T10:05:01.196Z,4.37
2018-04-02T10:07:30.024Z,4.57
2018-04-02T10:09:59.267Z,5.13
2018-04-02T10:12:28.375Z,3.43
2018-04-02T10:14:57.645Z,3.50
2018-04-02T10:17:26.807Z,4.10
2018-04-02T10:19:55.766Z,3.97
2018-04-02T10:22:25.415Z,2.80
2018-04-02T10:24:54.475Z,2.97
2018-04-02T10:27:23.362Z,3.47
2018-04-02T10:29:52.311Z,3.17
2018-04-02T10:32:21.556Z,3.20
2018-04-02T10:34:50.512Z,3.70
2018-04-02T10:37:19.403Z,3.20
2018-04-02T10:39:48.638Z,2.50
2018-04-02T10:42:17.831Z,2.70
2018-04-02T10:44:47.468Z,3.13
2018-04-02T10:47:16.568Z,3.37
2018-04-02T10:49:46.377Z,3.90
2018-04-02T10:52:15.992Z,2.20
2018-04-02T10:54:45.670Z,3.00
2018-04-02T10:57:15.478Z,2.77
2018-04-02T10:59:44.706Z,2.90
2018-04-02T11:02:13.738Z,6.17
2018-04-02T11:04:42.773Z,3.63
2018-04-02T11:07:12.337Z,4.07
2018-04-02T11:09:41.185Z,4.03
2018-04-02T11:12:10.828Z,7.17
2018-04-02T11:14:40.001Z,5.00
2018-04-02T11:17:08.947Z,3.27
2018-04-02T11:19:37.839Z,2.77
2018-04-02T11:22:06.840Z,6.30
2018-04-02T11:24:35.812Z,3.73
2018-04-02T11:27:04.793Z,4.63
2018-04-02T11:29:34.505Z,3.03
2018-04-02T11:32:03.601Z,3.10
2018-04-02T11:34:32.585Z,2.67
2018-04-02T11:37:01.489Z,4.13
2018-04-02T11:39:30.372Z,3.60
2018-04-02T11:41:59.221Z,2.83
2018-04-02T11:44:28.909Z,3.30
2018-04-02T11:46:57.796Z,2.73
2018-04-02T11:49:27.743Z,3.47
2018-04-02T11:51:56.654Z,4.97
2018-04-02T11:54:25.522Z,3.93
2018-04-02T11:56:54.639Z,3.10
2018-04-02T11:59:23.704Z,4.53
2018-04-02T12:01:53.710Z,5.40
2018-04-02T12:04:22.837Z,3.37
2018-04-02T12:06:52.549Z,3.30
2018-04-02T12:09:22.387Z,5.00
2018-04-02T12:11:51.414Z,3.50
2018-04-02T12:14:20.327Z,2.37
2018-04-02T12:16:49.500Z,3.20
2018-04-02T12:19:18.533Z,2.20
2018-04-02T12:21:48.316Z,1.97
2018-04-02T12:24:17.257Z,2.93
2018-04-02T12:26:47.341Z,3.33
2018-04-02T12:29:16.354Z,3.33
2018-04-02T12:31:45.229Z,2.90
2018-04-02T12:34:14.131Z,2.73
2018-04-02T12:36:44.876Z,1.77
2018-04-02T12:39:14.007Z,2.20
2018-04-02T12:41:44.707Z,2.30
2018-04-02T12:44:15.165Z,2.37
2018-04-02T12:46:44.113Z,2.60
2018-04-02T12:49:13.722Z,4.47
2018-04-02T12:51:42.885Z,2.50
2018-04-02T12:54:11.852Z,2.53
2018-04-02T12:56:41.857Z,1.90
2018-04-02T12:59:10.869Z,2.60
2018-04-02T13:01:39.779Z,2.27
2018-04-02T13:04:08.662Z,1.77
2018-04-02T13:06:38.347Z,2.00
2018-04-02T13:09:07.325Z,2.40
2018-04-02T13:11:36.241Z,3.00
2018-04-02T13:14:05.137Z,2.30
2018-04-02T13:16:34.063Z,1.83
2018-04-02T13:19:03.853Z,1.80
2018-04-02T13:21:33.836Z,2.60
2018-04-02T13:24:02.730Z,2.60
2018-04-02T13:26:32.644Z,2.20
2018-04-02T13:29:01.798Z,2.40
2018-04-02T13:31:31.467Z,2.00
2018-04-02T13:34:00.427Z,2.10
2018-04-02T13:36:29.435Z,3.47
2018-04-02T13:38:58.280Z,3.20
2018-04-02T13:41:27.169Z,2.47
2018-04-02T13:43:56.969Z,1.70
2018-04-02T13:46:26.626Z,1.70
2018-04-02T13:48:55.612Z,1.90
2018-04-02T13:51:24.668Z,2.70
2018-04-02T13:53:54.361Z,2.50
2018-04-02T13:56:23.207Z,1.47
2018-04-02T13:58:52.141Z,2.20
2018-04-02T14:01:21.073Z,1.57
2018-04-02T14:03:51.180Z,1.60
2018-04-02T14:06:20.990Z,2.10
2018-04-02T14:08:51.323Z,2.30
2018-04-02T14:11:20.986Z,2.53
2018-04-02T14:13:50.725Z,2.37
2018-04-02T14:16:19.625Z,2.53
2018-04-02T14:18:49.424Z,2.30
2018-04-02T14:21:19.375Z,2.70
2018-04-02T14:23:48.325Z,1.97
2018-04-02T14:26:17.239Z,2.00
2018-04-02T14:28:46.618Z,2.50
2018-04-02T14:31:15.686Z,3.20
2018-04-02T14:33:44.573Z,2.10
2018-04-02T14:36:13.577Z,1.90
2018-04-02T14:38:42.496Z,2.00
2018-04-02T14:41:11.341Z,1.40
2018-04-02T14:43:40.207Z,2.70
2018-04-02T14:46:09.362Z,2.10
2018-04-02T14:48:38.313Z,4.70
2018-04-02T14:51:07.260Z,2.87
2018-04-02T14:53:36.225Z,2.90
2018-04-02T14:56:05.107Z,4.90
2018-04-02T14:58:34.017Z,3.00
2018-04-02T15:01:03.134Z,1.83
2018-04-02T15:03:32.896Z,2.00
2018-04-02T15:06:01.838Z,2.40
2018-04-02T15:08:30.872Z,1.67
2018-04-02T15:10:59.934Z,1.70
2018-04-02T15:13:28.840Z,2.10
2018-04-02T15:15:57.750Z,2.80
2018-04-02T15:18:26.693Z,3.03
2018-04-02T15:20:56.407Z,2.30
2018-04-02T15:23:26.050Z,2.63
2018-04-02T15:25:54.898Z,2.53
2018-04-02T15:28:24.537Z,3.63
2018-04-02T15:30:54.215Z,4.80
2018-04-02T15:33:23.225Z,3.77
2018-04-02T15:35:52.196Z,2.80
2018-04-02T15:38:21.798Z,2.60
2018-04-02T15:40:51.474Z,2.73
2018-04-02T15:43:20.374Z,3.60
2018-04-02T15:45:49.616Z,5.83
2018-04-02T15:48:19.272Z,6.67
2018-04-02T15:50:48.949Z,6.77
2018-04-02T15:53:17.949Z,4.63
2018-04-02T15:55:47.029Z,3.93
2018-04-02T15:58:16.568Z,3.67
2018-04-02T16:00:45.608Z,5.87
2018-04-02T16:03:15.543Z,7.50
2018-04-02T16:05:44.512Z,7.37
2018-04-02T16:21:13.397Z,4.97
2018-04-02T16:23:43.120Z,4.17
2018-04-02T16:26:12.785Z,4.87
2018-04-02T16:28:41.784Z,6.50
2018-04-02T16:31:10.876Z,4.50
2018-04-02T16:33:39.752Z,5.13
2018-04-02T16:36:08.621Z,3.50
2018-04-02T16:38:37.506Z,4.60
2018-04-02T16:41:06.443Z,4.27
2018-04-02T16:43:35.533Z,7.67
2018-04-02T16:46:04.621Z,6.40
2018-04-02T16:48:33.681Z,5.87
2018-04-02T16:51:03.274Z,9.50
2018-04-02T16:53:32.526Z,11.50
2018-04-02T16:56:01.434Z,15.60
2018-04-02T16:58:31.323Z,5.70
2018-04-02T17:01:00.356Z,7.23
2018-04-02T17:03:29.475Z,67.27
2018-04-02T17:05:58.373Z,12.03
2018-04-02T17:08:27.457Z,12.80
2018-04-02T17:10:56.562Z,12.17
2018-04-02T17:13:25.421Z,13.37
2018-04-02T17:15:55.130Z,19.67
2018-04-02T17:18:24.796Z,14.53
2018-04-02T17:20:54.490Z,18.50
2018-04-02T17:23:30.966Z,18.07
2018-04-02T17:26:00.034Z,18.23
2018-04-02T17:28:29.014Z,20.97
2018-04-02T17:30:57.919Z,26.10
2018-04-02T17:33:27.594Z,24.10
2018-04-02T17:35:57.473Z,22.93
2018-04-02T17:38:26.383Z,20.73
2018-04-02T17:40:55.509Z,20.50
2018-04-02T17:43:24.458Z,19.40
2018-04-02T17:45:53.378Z,18.77
2018-04-02T17:48:22.242Z,17.87
2018-04-02T17:50:51.156Z,16.57
2018-04-02T17:53:24.085Z,15.70
2018-04-02T17:55:53.133Z,14.63
2018-04-02T17:58:22.169Z,11.80
2018-04-02T18:00:51.361Z,10.20
2018-04-02T18:03:20.778Z,8.93
2018-04-02T18:05:50.963Z,7.57
2018-04-02T18:08:20.721Z,6.63
2018-04-02T18:10:49.679Z,7.07
2018-04-02T18:13:19.381Z,6.93
2018-04-02T18:15:49.114Z,6.47
2018-04-02T18:18:18.089Z,8.40
2018-04-02T18:20:47.155Z,10.00
2018-04-02T18:23:16.034Z,12.53
2018-04-02T18:25:44.909Z,25.83
2018-04-02T18:28:19.262Z,23.17
2018-04-02T18:30:48.304Z,23.50
2018-04-02T18:33:18.202Z,20.80
2018-04-02T18:35:48.235Z,18.27
2018-04-02T18:38:17.966Z,13.98
2018-04-02T18:40:46.908Z,13.48
2018-04-02T18:43:16.822Z,14.73
2018-04-02T18:45:46.386Z,15.82
2018-04-02T18:48:15.476Z,15.60
2018-04-02T18:50:44.308Z,17.08
2018-04-02T18:53:13.230Z,20.67
2018-04-02T18:55:42.324Z,19.45
2018-04-02T18:58:11.235Z,21.00
2018-04-02T19:00:40.170Z,19.00
2018-04-02T19:03:11.424Z,20.25
2018-04-02T19:05:40.667Z,18.00
2018-04-02T19:08:09.559Z,18.33
2018-04-02T19:10:38.577Z,17.02
2018-04-02T19:13:07.576Z,17.77
2018-04-02T19:15:36.639Z,17.62
2018-04-02T19:18:06.249Z,17.27
2018-04-02T19:20:35.125Z,16.08
2018-04-02T19:23:04.281Z,16.37
2018-04-02T19:25:33.936Z,15.52
2018-04-02T19:28:02.873Z,26.25
2018-04-02T19:30:32.097Z,23.17
2018-04-02T19:33:01.974Z,22.67
2018-04-02T19:35:30.849Z,23.85
2018-04-02T19:37:59.795Z,23.65
2018-04-02T19:40:28.725Z,21.75
2018-04-02T19:42:57.704Z,22.60
2018-04-02T19:45:33.426Z,21.17
2018-04-02T19:48:06.251Z,24.65
2018-04-02T19:50:43.245Z,24.48
2018-04-02T19:53:16.535Z,21.67
2018-04-02T19:55:47.453Z,15.63
2018-04-02T19:58:19.492Z,12.68
2018-04-02T20:00:54.541Z,11.80
2018-04-02T20:03:28.140Z,12.60
2018-04-02T20:06:04.324Z,12.13
2018-04-02T20:08:38.546Z,11.60
2018-04-02T20:11:12.578Z,10.93
2018-04-02T20:13:44.928Z,11.60
2018-04-02T20:16:19.878Z,10.38
2018-04-02T20:18:56.798Z,11.27
2018-04-02T20:21:30.167Z,12.35
2018-04-02T20:24:06.938Z,12.32
2018-04-02T20:26:39.756Z,12.68
2018-04-02T20:29:14.868Z,11.32
2018-04-02T20:31:48.971Z,13.02
2018-04-02T20:34:23.579Z,12.60
2018-04-02T20:36:59.866Z,12.60
2018-04-02T20:39:36.862Z,13.77
2018-04-02T20:42:11.027Z,12.05
2018-04-02T20:44:41.334Z,13.00
2018-04-02T20:47:10.385Z,13.13
2018-04-02T20:49:40.565Z,13.62
2018-04-02T20:52:09.445Z,13.18
2018-04-02T20:54:38.268Z,13.13
2018-04-02T20:57:07.314Z,14.75
2018-04-02T20:59:37.068Z,15.10
2018-04-02T21:02:05.956Z,15.82
2018-04-02T21:04:34.975Z,15.90
2018-04-02T21:07:03.880Z,16.23
2018-04-02T21:09:33.526Z,18.30
2018-04-02T21:12:02.736Z,19.15
2018-04-02T21:14:31.696Z,25.62
2018-04-02T21:17:00.592Z,34.80
2018-04-02T21:19:29.509Z,32.58
2018-04-02T21:21:58.387Z,33.20
2018-04-02T21:24:27.273Z,36.65
2018-04-02T21:26:56.215Z,29.90
2018-04-02T21:29:25.152Z,30.42
2018-04-02T21:31:54.016Z,29.17
2018-04-02T21:34:23.692Z,28.90
2018-04-02T21:36:52.580Z,26.27
2018-04-02T21:39:21.439Z,24.98
2018-04-02T21:41:50.619Z,26.05
2018-04-02T21:44:19.533Z,27.58
2018-04-02T21:46:48.446Z,28.17
2018-04-02T21:49:17.596Z,25.33
2018-04-02T21:51:47.524Z,25.02
2018-04-02T21:54:16.552Z,23.30
2018-04-02T21:56:45.495Z,22.20
2018-04-02T21:59:15.113Z,21.25
2018-04-02T22:01:45.645Z,20.92
2018-04-02T22:04:15.372Z,20.60
2018-04-02T22:06:56.134Z,20.48
2018-04-02T22:09:25.223Z,24.90
2018-04-02T22:11:54.985Z,29.35
2018-04-02T22:14:23.931Z,27.00
2018-04-02T22:16:52.990Z,25.58
2018-04-02T22:19:22.622Z,25.58
2018-04-02T22:21:52.417Z,25.52
2018-04-02T22:24:21.312Z,25.05
2018-04-02T22:26:51.076Z,26.52
2018-04-02T22:29:20.129Z,27.27
2018-04-02T22:31:49.143Z,30.35
2018-04-02T22:34:18.056Z,29.83
2018-04-02T22:36:47.085Z,28.62
2018-04-02T22:39:16.027Z,28.25
2018-04-02T22:41:44.868Z,28.75
2018-04-02T22:44:13.758Z,29.40
2018-04-02T22:46:43.376Z,27.15
2018-04-02T22:49:13.210Z,25.33
2018-04-02T22:51:42.280Z,23.80
2018-04-02T22:54:12.037Z,23.55
2018-04-02T22:56:40.987Z,23.95
2018-04-02T22:59:09.898Z,21.92
2018-04-02T23:01:39.017Z,22.23
2018-04-02T23:04:07.847Z,21.87
2018-04-02T23:06:37.498Z,21.65
2018-04-02T23:09:06.468Z,22.02
2018-04-02T23:11:36.221Z,21.48
2018-04-02T23:14:05.116Z,21.87
2018-04-02T23:16:34.593Z,22.20
2018-04-02T23:19:03.829Z,25.50
2018-04-02T23:21:32.958Z,28.25
2018-04-02T23:24:02.396Z,28.45
2018-04-02T23:26:31.374Z,29.33
2018-04-02T23:29:00.748Z,29.33
2018-04-02T23:31:30.440Z,30.30
2018-04-02T23:33:59.597Z,32.60
2018-04-02T23:36:28.744Z,32.50
2018-04-02T23:38:58.672Z,32.03
2018-04-02T23:41:27.687Z,28.77
2018-04-02T23:43:56.610Z,26.95
2018-04-02T23:46:25.548Z,27.45
2018-04-02T23:48:55.710Z,25.58
2018-04-02T23:51:25.862Z,25.10
2018-04-02T23:53:55.741Z,24.45
2018-04-02T23:56:24.726Z,22.10
2018-04-02T23:58:53.955Z,21.58
